Skip to main content

CRUISE INFORMATION RECORD AND DATA
 
NODC Cruise 31-25665 Information
WOD CRUISE REFERENCE # 31025665
DATA:
in WOD format 31025665_XBT.dat
31025665_CTD.dat
in 'csv' format 31025665_XBT.csv
31025665_CTD.csv
METADATA:
COUNTRY UNITED STATES (31)
NODC ACCESSION NUMBER (XBT) 46703
SHIP NAME OCEANUS
INSTITUTE UNIVERSITY OF RHODE ISLAND; GSO (NARRAGANSETT; RI)
PROJECT SYNOPTIC OCEAN PREDICTION (SYNOP)
ORIGINATORS CRUISE CODE (XBT) OC210
PRIMARY INVESTIGATORS  
All Parameters WATTS; DR. D. RANDOLPH
All Parameters BANE; JOHN H. JR.
DATE OF FIRST CAST 8/ 9/1989
DATE OF LAST CAST 8/31/1989
TOTAL NUMBER OF CASTS 216
Temperature [t] PROFILES 216
Salinity [s] PROFILES 14
Pressure [w] PROFILES 14
UNIQUE CAST # LATITUDE LONGITUDE DATE TIME PROBE TYPE
11561829 37.028 -73.711 8/9/1989 17.300 XBT
11561830 36.076 -73.949 8/9/1989 22.267 XBT
11561831 35.750 -74.468 8/10/1989 1.383 XBT
11561832 35.613 -74.234 8/10/1989 3.017 XBT
11561833 35.617 -74.233 8/10/1989 5.800 XBT
11561834 35.484 -74.044 8/10/1989 7.450 XBT
11561835 35.501 -74.060 8/10/1989 10.117 XBT
11561836 35.312 -74.613 8/10/1989 16.933 XBT
11561837 34.969 -74.416 8/10/1989 22.933 XBT
11561838 34.970 -74.412 8/11/1989 1.550 XBT
11561839 35.766 -73.556 8/11/1989 7.300 XBT
11561840 35.200 -73.666 8/11/1989 13.233 XBT
11561841 35.199 -73.668 8/11/1989 16.200 XBT
11561842 35.344 -73.848 8/11/1989 17.317 XBT
11561843 35.344 -73.848 8/11/1989 19.817 XBT
11561392 35.299 -73.689 8/12/1989 13.033 CTD
11561393 35.299 -73.689 8/12/1989 13.033 CTD
11561844 35.299 -73.689 8/12/1989 13.033 XBT
11561845 35.300 -73.687 8/12/1989 13.117 XBT
11561394 35.782 -73.513 8/12/1989 16.083 CTD
11561395 35.782 -73.513 8/12/1989 16.083 CTD
11561846 35.782 -73.513 8/12/1989 16.083 XBT
11561847 35.783 -73.508 8/12/1989 16.150 XBT
11561848 35.785 -73.503 8/12/1989 16.233 XBT
11561849 35.788 -73.494 8/12/1989 16.317 XBT
11561850 35.770 -73.550 8/12/1989 17.967 XBT
11561851 36.074 -73.948 8/12/1989 20.950 XBT
11561396 36.075 -73.944 8/12/1989 21.383 CTD
11561397 36.075 -73.944 8/12/1989 21.383 CTD
11561852 36.075 -73.944 8/12/1989 21.383 XBT
11561853 36.075 -73.943 8/12/1989 21.467 XBT
11561854 36.075 -73.939 8/12/1989 21.717 XBT
11561855 36.076 -73.938 8/12/1989 21.783 XBT
11561856 35.752 -74.465 8/13/1989 1.317 XBT
11561857 35.203 -74.731 8/13/1989 6.283 XBT
11561858 37.408 -69.783 8/14/1989 2.050 XBT
11561859 37.409 -69.786 8/14/1989 5.100 XBT
11561860 36.703 -69.566 8/14/1989 8.967 XBT
11561861 36.700 -69.567 8/14/1989 11.817 XBT
11561862 37.181 -68.279 8/14/1989 17.733 XBT
11561863 37.174 -68.289 8/14/1989 20.950 XBT
11561398 37.174 -68.289 8/14/1989 20.950 CTD
11561399 37.174 -68.289 8/14/1989 20.950 CTD
11561864 37.174 -68.287 8/14/1989 21.067 XBT
11561865 37.172 -68.284 8/14/1989 21.333 XBT
11561866 37.171 -68.284 8/14/1989 21.417 XBT
11561867 37.179 -68.290 8/14/1989 21.833 XBT
11561868 37.663 -68.590 8/15/1989 1.317 XBT
11561869 38.167 -68.724 8/15/1989 5.583 XBT
11561870 38.431 -69.031 8/15/1989 9.300 XBT
11561871 38.630 -68.900 8/15/1989 13.333 XBT
11561872 38.631 -68.903 8/15/1989 13.417 XBT
11561873 38.169 -68.725 8/15/1989 17.600 XBT
11561874 37.662 -68.587 8/15/1989 21.550 XBT
11561875 37.597 -68.702 8/15/1989 22.200 XBT
11561876 37.533 -68.799 8/15/1989 22.717 XBT
11561877 37.476 -68.900 8/15/1989 23.267 XBT
11561878 37.416 -69.026 8/15/1989 23.883 XBT
11561879 37.349 -69.148 8/16/1989 0.533 XBT
11561880 37.292 -69.250 8/16/1989 1.067 XBT
11561881 37.172 -69.381 8/16/1989 1.900 XBT
11561882 37.056 -69.500 8/16/1989 2.683 XBT
11561883 36.929 -69.637 8/16/1989 3.600 XBT
11561884 36.800 -69.767 8/16/1989 4.517 XBT
11561885 36.702 -69.565 8/16/1989 5.467 XBT
11561886 36.669 -69.385 8/16/1989 6.167 XBT
11561887 36.633 -69.205 8/16/1989 6.850 XBT
11561888 36.603 -69.042 8/16/1989 7.450 XBT
11561889 36.578 -68.921 8/16/1989 7.867 XBT
11561890 36.562 -68.797 8/16/1989 8.333 XBT
11561891 36.553 -68.675 8/16/1989 8.783 XBT
11561892 36.536 -68.554 8/16/1989 9.250 XBT
11561893 36.508 -68.414 8/16/1989 9.767 XBT
11561894 36.484 -68.294 8/16/1989 10.200 XBT
11561895 36.447 -68.156 8/16/1989 10.867 XBT
11561896 36.432 -67.969 8/16/1989 11.633 XBT
11561897 36.418 -67.798 8/16/1989 12.417 XBT
11561898 36.418 -67.799 8/16/1989 16.050 XBT
11561899 36.352 -67.623 8/16/1989 16.900 XBT
11561900 36.306 -67.467 8/16/1989 17.583 XBT
11561901 36.272 -67.349 8/16/1989 18.067 XBT
11561902 36.301 -67.187 8/16/1989 18.667 XBT
11561903 36.373 -67.006 8/16/1989 19.667 XBT
11561400 36.373 -67.006 8/16/1989 19.667 CTD
11561401 36.373 -67.006 8/16/1989 19.667 CTD
11561904 36.375 -67.003 8/16/1989 19.733 XBT
11561905 36.388 -66.989 8/16/1989 20.050 XBT
11561906 36.391 -66.985 8/16/1989 20.117 XBT
11561907 36.537 -67.056 8/16/1989 21.167 XBT
11561908 36.651 -67.168 8/16/1989 21.833 XBT
11561909 36.768 -67.318 8/16/1989 22.600 XBT
11561910 36.961 -67.432 8/16/1989 23.550 XBT
11561911 37.140 -67.543 8/17/1989 0.467 XBT
11561912 37.266 -67.453 8/17/1989 1.350 XBT
11561913 37.309 -67.325 8/17/1989 2.000 XBT
11561914 37.400 -67.166 8/17/1989 2.783 XBT
11561915 37.450 -67.033 8/17/1989 3.433 XBT
11561916 37.464 -67.247 8/17/1989 4.183 XBT
11561917 37.465 -67.436 8/17/1989 4.817 XBT
11561918 37.463 -67.604 8/17/1989 5.383 XBT
11561919 37.458 -67.774 8/17/1989 5.950 XBT
11561920 37.444 -67.941 8/17/1989 6.533 XBT
11561921 37.419 -68.159 8/17/1989 7.183 XBT
11561922 37.409 -68.276 8/17/1989 7.850 XBT
11561923 37.403 -68.444 8/17/1989 8.600 XBT
11561924 37.400 -68.613 8/17/1989 9.433 XBT
11561925 37.405 -68.779 8/17/1989 10.283 XBT
11561926 37.404 -68.904 8/17/1989 10.950 XBT
11561927 37.408 -69.073 8/17/1989 11.867 XBT
11561928 37.476 -68.903 8/17/1989 12.833 XBT
11561929 37.534 -68.755 8/17/1989 13.417 XBT
11561930 37.597 -68.608 8/17/1989 14.033 XBT
11561931 37.661 -68.466 8/17/1989 14.667 XBT
11561932 37.741 -68.313 8/17/1989 15.367 XBT
11561933 37.756 -68.187 8/17/1989 15.900 XBT
11561934 37.777 -68.064 8/17/1989 16.417 XBT
11561935 37.792 -67.940 8/17/1989 16.967 XBT
11561936 37.827 -67.807 8/17/1989 17.550 XBT
11561937 37.882 -67.632 8/17/1989 18.333 XBT
11561938 37.929 -67.473 8/17/1989 19.050 XBT
11561939 37.960 -67.308 8/17/1989 19.783 XBT
11561940 37.992 -67.145 8/17/1989 20.467 XBT
11561941 38.031 -66.982 8/17/1989 21.400 XBT
11561402 38.031 -66.982 8/17/1989 21.400 CTD
11561403 38.031 -66.982 8/17/1989 21.400 CTD
11561942 38.031 -66.982 8/17/1989 21.467 XBT
11561943 38.030 -66.983 8/17/1989 21.583 XBT
11561944 38.030 -66.985 8/17/1989 21.767 XBT
11561945 38.029 -66.985 8/17/1989 21.833 XBT
11561946 38.029 -66.985 8/17/1989 21.983 XBT
11561947 38.152 -67.166 8/17/1989 23.183 XBT
11561948 38.237 -67.284 8/17/1989 23.783 XBT
11561949 38.318 -67.396 8/18/1989 0.350 XBT
11561950 38.402 -67.507 8/18/1989 0.917 XBT
11561951 38.486 -67.633 8/18/1989 1.417 XBT
11561952 38.551 -67.728 8/18/1989 1.883 XBT
11561953 38.627 -67.839 8/18/1989 2.417 XBT
11561954 38.703 -67.974 8/18/1989 3.067 XBT
11561955 38.793 -68.106 8/18/1989 3.683 XBT
11561956 38.831 -68.208 8/18/1989 4.100 XBT
11561957 38.881 -68.365 8/18/1989 4.750 XBT
11561958 38.938 -68.520 8/18/1989 5.367 XBT
11561959 39.000 -68.672 8/18/1989 6.000 XBT
11561960 39.050 -68.882 8/18/1989 6.767 XBT
11561961 38.931 -68.903 8/18/1989 7.367 XBT
11561962 38.781 -68.911 8/18/1989 8.083 XBT
11561963 38.631 -68.903 8/18/1989 8.867 XBT
11561964 38.535 -68.867 8/18/1989 9.400 XBT
11561965 38.424 -68.819 8/18/1989 10.033 XBT
11561966 38.297 -68.768 8/18/1989 10.733 XBT
11561967 38.170 -68.724 8/18/1989 11.417 XBT
11561968 38.047 -68.849 8/18/1989 12.183 XBT
11561969 37.948 -68.962 8/18/1989 12.833 XBT
11561970 37.842 -69.065 8/18/1989 13.517 XBT
11561971 37.737 -69.167 8/18/1989 14.250 XBT
11561972 37.636 -69.277 8/18/1989 14.967 XBT
11561973 37.535 -69.390 8/18/1989 15.717 XBT
11561974 37.437 -69.500 8/18/1989 16.467 XBT
11561975 37.334 -69.606 8/18/1989 17.233 XBT
11561976 37.236 -69.712 8/18/1989 18.200 XBT
11561404 37.236 -69.708 8/18/1989 18.283 CTD
11561405 37.236 -69.708 8/18/1989 18.283 CTD
11561977 37.236 -69.708 8/18/1989 18.283 XBT
11561978 37.236 -69.706 8/18/1989 18.333 XBT
11561979 37.235 -69.703 8/18/1989 18.417 XBT
11561980 37.236 -69.700 8/18/1989 18.500 XBT
11561981 37.236 -69.694 8/18/1989 18.650 XBT
11561982 37.407 -69.785 8/18/1989 19.800 XBT
11561983 37.533 -69.786 8/18/1989 20.417 XBT
11561984 37.668 -69.782 8/18/1989 21.067 XBT
11561985 37.799 -69.797 8/18/1989 21.733 XBT
11561986 37.957 -69.812 8/18/1989 22.500 XBT
11561987 38.066 -69.804 8/18/1989 23.083 XBT
11561988 38.243 -69.763 8/18/1989 23.983 XBT
11561989 38.304 -69.715 8/19/1989 0.350 XBT
11561990 38.409 -69.617 8/19/1989 1.000 XBT
11561991 38.519 -69.520 8/19/1989 1.667 XBT
11561992 38.628 -69.424 8/19/1989 2.333 XBT
11561993 38.759 -69.380 8/19/1989 3.117 XBT
11561994 38.947 -69.310 8/19/1989 3.900 XBT
11561995 39.112 -69.246 8/19/1989 4.700 XBT
11561996 39.266 -69.200 8/19/1989 5.417 XBT
11561997 37.949 -69.964 8/23/1989 9.450 XBT
11561998 37.791 -69.405 8/23/1989 11.000 XBT
11561999 37.663 -68.588 8/23/1989 13.800 XBT
11562000 37.791 -67.942 8/23/1989 16.267 XBT
11562001 38.325 -67.966 8/23/1989 23.700 XBT
11562002 38.794 -68.107 8/24/1989 1.700 XBT
11562003 39.167 -67.785 8/24/1989 3.800 XBT
11562004 38.778 -67.376 8/24/1989 6.000 XBT
11562005 38.149 -67.166 8/24/1989 9.200 XBT
11562006 37.632 -67.012 8/25/1989 6.300 XBT
11562007 37.300 -67.663 8/25/1989 13.067 XBT
11562008 37.180 -68.292 8/26/1989 0.250 XBT
11562009 36.672 -68.258 8/26/1989 2.183 XBT
11562010 36.415 -67.797 8/26/1989 3.767 XBT
11562011 36.829 -67.457 8/26/1989 6.017 XBT
11562012 36.998 -66.924 8/26/1989 8.100 XBT
11562013 37.663 -68.588 8/27/1989 1.683 XBT
11562014 37.792 -69.405 8/27/1989 7.467 XBT
11562015 35.773 -73.541 8/29/1989 16.400 XBT
11562016 35.501 -74.061 8/30/1989 7.617 XBT
11562017 35.618 -74.235 8/30/1989 8.700 XBT
11562018 35.752 -74.465 8/30/1989 9.850 XBT
11562019 35.618 -74.232 8/30/1989 13.633 XBT
11562020 35.500 -74.060 8/30/1989 14.517 XBT
11562021 35.344 -73.846 8/30/1989 15.467 XBT
11562022 35.200 -73.665 8/30/1989 21.183 XBT
11562023 35.345 -73.848 8/30/1989 22.500 XBT
11562024 35.501 -74.062 8/30/1989 23.783 XBT
11562025 35.617 -74.232 8/31/1989 0.817 XBT
11562026 35.750 -73.552 8/31/1989 3.983 XBT
11562027 35.200 -73.667 8/31/1989 6.717 XBT
11562028 35.345 -73.848 8/31/1989 7.883 XBT
11562029 35.501 -74.061 8/31/1989 9.167 XBT
11562030 35.750 -73.553 8/31/1989 11.183 XBT